createdAt,value
2022-12-11T00:01:14.832Z,95664.22
2022-12-11T00:03:59.774Z,95670.38
2022-12-11T00:06:44.716Z,95671.75
2022-12-11T00:09:29.677Z,95678.97
2022-12-11T00:12:14.607Z,95676.66
2022-12-11T00:14:59.633Z,95676.91
2022-12-11T00:17:44.463Z,95673.56
2022-12-11T00:20:29.454Z,95667.06
2022-12-11T00:23:14.387Z,95677.22
2022-12-11T00:25:59.190Z,95669.72
2022-12-11T00:28:44.139Z,95669.50
2022-12-11T00:31:29.016Z,95663.69
2022-12-11T00:34:13.917Z,95670.75
2022-12-11T00:36:58.951Z,95667.41
2022-12-11T00:39:43.983Z,95680.41
2022-12-11T00:42:28.786Z,95686.44
2022-12-11T00:45:13.809Z,95680.00
2022-12-11T00:47:58.673Z,95673.84
2022-12-11T00:50:43.662Z,95679.88
2022-12-11T00:53:28.558Z,95664.38
2022-12-11T00:56:13.463Z,95665.13
2022-12-11T00:58:58.552Z,95667.16
2022-12-11T01:01:43.357Z,95673.09
2022-12-11T01:04:28.347Z,95678.59
2022-12-11T01:07:13.180Z,95691.06
2022-12-11T01:09:58.122Z,95675.13
2022-12-11T01:12:42.986Z,95676.78
2022-12-11T01:15:27.891Z,95669.22
2022-12-11T01:18:12.784Z,95670.13
2022-12-11T01:20:57.527Z,95671.94
2022-12-11T01:23:42.510Z,95683.44
2022-12-11T01:26:27.364Z,95691.28
2022-12-11T01:29:12.285Z,95698.38
2022-12-11T01:31:57.070Z,95709.38
2022-12-11T01:34:41.950Z,95721.63
2022-12-11T01:37:26.755Z,95713.75
2022-12-11T01:40:11.853Z,95711.13
2022-12-11T01:42:56.644Z,95708.28
2022-12-11T01:45:41.717Z,95705.09
2022-12-11T01:48:26.774Z,95715.44
2022-12-11T01:51:11.578Z,95712.03
2022-12-11T01:53:56.587Z,95705.28
2022-12-11T01:56:41.448Z,95694.47
2022-12-11T01:59:26.463Z,95698.00
2022-12-11T02:02:11.385Z,95691.44
2022-12-11T02:04:56.233Z,95703.31
2022-12-11T02:07:41.152Z,95701.38
2022-12-11T02:10:26.141Z,95697.22
2022-12-11T02:13:11.100Z,95696.28
2022-12-11T02:15:55.864Z,95701.94
2022-12-11T02:18:40.889Z,95699.50
2022-12-11T02:21:25.748Z,95701.38
2022-12-11T02:24:10.840Z,95708.06
2022-12-11T02:26:55.678Z,95715.59
2022-12-11T02:29:40.625Z,95716.09
2022-12-11T02:32:25.542Z,95717.03
2022-12-11T02:35:10.757Z,95714.63
2022-12-11T02:37:56.060Z,95706.84
2022-12-11T02:40:40.925Z,95708.28
2022-12-11T02:43:25.791Z,95708.63
2022-12-11T02:46:10.734Z,95711.56
2022-12-11T02:48:55.658Z,95715.97
2022-12-11T02:51:40.698Z,95715.28
2022-12-11T02:54:25.397Z,95714.19
2022-12-11T02:57:10.350Z,95709.75
2022-12-11T02:59:55.285Z,95716.94
2022-12-11T03:02:40.306Z,95726.78
2022-12-11T03:05:25.087Z,95727.41
2022-12-11T03:08:10.166Z,95727.91
2022-12-11T03:10:54.920Z,95734.75
2022-12-11T03:13:39.713Z,95728.28
2022-12-11T03:16:24.538Z,95728.75
2022-12-11T03:19:09.457Z,95731.81
2022-12-11T03:21:54.308Z,95727.06
2022-12-11T03:24:39.008Z,95713.09
2022-12-11T03:27:23.968Z,95720.16
2022-12-11T03:30:08.816Z,95720.38
2022-12-11T03:32:53.808Z,95716.41
2022-12-11T03:35:38.635Z,95720.78
2022-12-11T03:38:23.473Z,95719.91
2022-12-11T03:41:08.349Z,95718.91
2022-12-11T03:43:53.281Z,95722.50
2022-12-11T03:46:38.270Z,95722.81
2022-12-11T03:49:23.260Z,95725.56
2022-12-11T03:52:08.219Z,95719.00
2022-12-11T03:54:53.143Z,95719.97
2022-12-11T03:57:38.210Z,95725.84
2022-12-11T04:00:23.087Z,95722.03
2022-12-11T04:03:12.920Z,95722.72
2022-12-11T04:05:58.864Z,95724.22
2022-12-11T04:08:43.656Z,95726.97
2022-12-11T04:11:28.538Z,95733.53
2022-12-11T04:14:13.323Z,95742.94
2022-12-11T04:16:58.118Z,95731.78
2022-12-11T04:19:42.969Z,95731.31
2022-12-11T04:22:27.745Z,95724.53
2022-12-11T04:25:12.780Z,95725.06
2022-12-11T04:27:57.958Z,95719.28
2022-12-11T04:30:42.790Z,95719.66
2022-12-11T04:33:27.677Z,95728.34
2022-12-11T04:36:12.728Z,95725.13
2022-12-11T04:38:57.539Z,95715.66
2022-12-11T04:41:42.484Z,95713.19
2022-12-11T04:44:27.333Z,95714.50
2022-12-11T04:47:12.141Z,95720.88
2022-12-11T04:49:57.061Z,95717.94
2022-12-11T04:52:41.875Z,95711.22
2022-12-11T04:55:26.845Z,95711.22
2022-12-11T04:58:11.775Z,95716.13
2022-12-11T05:00:56.573Z,95709.13
2022-12-11T05:03:41.565Z,95707.41
2022-12-11T05:06:26.489Z,95713.03
2022-12-11T05:09:11.249Z,95702.41
2022-12-11T05:11:56.149Z,95698.94
2022-12-11T05:14:41.178Z,95700.41
2022-12-11T05:17:26.009Z,95704.00
2022-12-11T05:20:11.066Z,95696.50
2022-12-11T05:22:55.908Z,95708.44
2022-12-11T05:25:40.976Z,95704.19
2022-12-11T05:28:25.811Z,95696.34
2022-12-11T05:31:10.764Z,95702.03
2022-12-11T05:33:55.680Z,95700.25
2022-12-11T05:36:40.592Z,95704.81
2022-12-11T05:39:25.402Z,95705.44
2022-12-11T05:42:10.226Z,95704.75
2022-12-11T05:44:55.142Z,95707.00
2022-12-11T05:47:39.878Z,95709.44
2022-12-11T05:50:24.762Z,95703.88
2022-12-11T05:53:09.679Z,95700.91
2022-12-11T05:55:54.553Z,95697.34
2022-12-11T05:58:39.381Z,95705.59
2022-12-11T06:01:24.348Z,95701.59
2022-12-11T06:04:09.304Z,95690.13
2022-12-11T06:06:54.292Z,95685.50
2022-12-11T06:09:39.276Z,95685.88
2022-12-11T06:12:24.160Z,95688.31
2022-12-11T06:15:09.505Z,95674.94
2022-12-11T06:17:54.873Z,95668.72
2022-12-11T06:20:39.811Z,95664.09
2022-12-11T06:23:24.647Z,95670.50
2022-12-11T06:26:09.514Z,95674.59
2022-12-11T06:28:54.561Z,95680.47
2022-12-11T06:31:39.577Z,95679.66
2022-12-11T06:34:24.853Z,95687.84
2022-12-11T06:37:09.728Z,95690.13
2022-12-11T06:39:54.714Z,95694.41
2022-12-11T06:42:39.602Z,95683.28
2022-12-11T06:45:24.511Z,95688.59
2022-12-11T06:48:09.438Z,95690.94
2022-12-11T06:50:54.194Z,95686.88
2022-12-11T06:53:39.215Z,95689.25
2022-12-11T06:56:24.128Z,95679.00
2022-12-11T06:59:09.103Z,95683.09
2022-12-11T07:01:54.481Z,95684.03
2022-12-11T07:04:39.911Z,95682.94
2022-12-11T07:07:24.898Z,95682.25
2022-12-11T07:10:09.802Z,95684.22
2022-12-11T07:12:54.739Z,95680.31
2022-12-11T07:15:40.616Z,95681.91
2022-12-11T07:18:25.627Z,95683.66
2022-12-11T07:21:10.463Z,95684.16
2022-12-11T07:23:55.295Z,95680.28
2022-12-11T07:26:40.239Z,95684.47
2022-12-11T07:29:25.170Z,95684.00
2022-12-11T07:32:10.354Z,95687.09
2022-12-11T07:34:55.664Z,95693.94
2022-12-11T07:37:40.761Z,95703.97
2022-12-11T07:40:25.711Z,95701.88
2022-12-11T07:43:10.613Z,95700.97
2022-12-11T07:45:55.571Z,95684.81
2022-12-11T07:48:40.449Z,95691.50
2022-12-11T07:51:25.412Z,95692.69
2022-12-11T07:54:10.374Z,95690.84
2022-12-11T07:56:55.224Z,95691.41
2022-12-11T07:59:40.078Z,95689.94
2022-12-11T08:02:25.211Z,95678.00
2022-12-11T08:05:10.422Z,95681.78
2022-12-11T08:07:55.956Z,95676.22
2022-12-11T08:10:40.821Z,95671.00
2022-12-11T08:13:25.811Z,95677.38
2022-12-11T08:16:10.730Z,95675.25
2022-12-11T08:18:55.534Z,95679.78
2022-12-11T08:21:40.607Z,95683.06
2022-12-11T08:24:25.503Z,95675.06
2022-12-11T08:27:10.400Z,95671.81
2022-12-11T08:29:55.298Z,95676.22
2022-12-11T08:32:40.230Z,95667.38
2022-12-11T08:35:25.077Z,95673.44
2022-12-11T08:38:09.948Z,95670.84
2022-12-11T08:40:54.965Z,95666.41
2022-12-11T08:43:39.866Z,95659.72
2022-12-11T08:46:24.827Z,95664.72
2022-12-11T08:49:10.037Z,95666.03
2022-12-11T08:51:54.921Z,95663.59
2022-12-11T08:54:39.740Z,95666.69
2022-12-11T08:57:24.740Z,95648.03
2022-12-11T09:00:09.705Z,95655.19
2022-12-11T09:02:54.641Z,95649.09
2022-12-11T09:05:40.125Z,95644.78
2022-12-11T09:08:25.101Z,95651.84
2022-12-11T09:11:10.101Z,95645.97
2022-12-11T09:13:55.019Z,95641.94
2022-12-11T09:16:39.980Z,95651.91
2022-12-11T09:19:29.207Z,95651.97
2022-12-11T09:22:17.144Z,95638.19
2022-12-11T09:25:02.059Z,95642.56
2022-12-11T09:27:47.028Z,95647.25
2022-12-11T09:30:32.050Z,95640.72
2022-12-11T09:33:17.002Z,95636.56
2022-12-11T09:36:01.833Z,95642.63
2022-12-11T09:38:46.699Z,95641.16
2022-12-11T09:41:31.502Z,95633.06
2022-12-11T09:44:16.500Z,95631.56
2022-12-11T09:47:01.353Z,95637.28
2022-12-11T09:49:46.056Z,95638.44
2022-12-11T09:52:31.075Z,95638.97
2022-12-11T09:55:16.070Z,95634.25
2022-12-11T09:58:01.106Z,95642.25
2022-12-11T10:00:45.998Z,95650.03
2022-12-11T10:03:31.003Z,95639.94
2022-12-11T10:06:15.817Z,95651.78
2022-12-11T10:09:00.757Z,95651.19
2022-12-11T10:11:45.553Z,95655.00
2022-12-11T10:14:30.490Z,95663.00
2022-12-11T10:17:16.002Z,95664.94
2022-12-11T10:20:00.897Z,95659.91
2022-12-11T10:22:45.798Z,95657.75
2022-12-11T10:25:30.647Z,95643.69
2022-12-11T10:28:15.561Z,95642.09
2022-12-11T10:31:00.518Z,95634.03
2022-12-11T10:33:45.371Z,95645.50
2022-12-11T10:36:30.234Z,95656.44
2022-12-11T10:39:15.021Z,95651.50
2022-12-11T10:42:00.057Z,95647.13
2022-12-11T10:44:45.269Z,95640.09
2022-12-11T10:47:30.373Z,95634.72
2022-12-11T10:50:15.299Z,95630.06
2022-12-11T10:53:00.264Z,95645.84
2022-12-11T10:55:45.219Z,95643.69
2022-12-11T10:58:30.118Z,95631.25
2022-12-11T11:01:15.244Z,95623.28
2022-12-11T11:04:00.649Z,95623.13
2022-12-11T11:06:45.636Z,95625.34
2022-12-11T11:09:30.605Z,95625.00
2022-12-11T11:12:15.506Z,95625.94
2022-12-11T11:15:00.322Z,95628.75
2022-12-11T11:17:54.246Z,95619.22
2022-12-11T11:20:39.975Z,95612.38
2022-12-11T11:23:25.068Z,95600.81
2022-12-11T11:26:09.932Z,95602.63
2022-12-11T11:28:54.980Z,95601.22
2022-12-11T11:31:39.806Z,95604.91
2022-12-11T11:34:24.718Z,95604.50
2022-12-11T11:37:09.511Z,95604.72
2022-12-11T11:39:54.452Z,95606.31
2022-12-11T11:42:39.461Z,95600.28
2022-12-11T11:45:24.327Z,95595.00
2022-12-11T11:48:11.549Z,95592.41
2022-12-11T11:50:56.546Z,95591.09
2022-12-11T11:53:41.520Z,95582.13
2022-12-11T11:56:26.439Z,95590.59
2022-12-11T11:59:11.250Z,95588.66
2022-12-11T12:01:56.150Z,95579.97
2022-12-11T12:04:41.002Z,95580.59
2022-12-11T12:07:25.933Z,95570.53
2022-12-11T12:10:10.804Z,95571.56
2022-12-11T12:12:56.173Z,95566.22
2022-12-11T12:15:41.067Z,95564.13
2022-12-11T12:18:25.957Z,95556.41
2022-12-11T12:21:10.837Z,95558.19
2022-12-11T12:23:55.689Z,95563.00
2022-12-11T12:26:40.560Z,95558.63
2022-12-11T12:29:25.518Z,95561.59
2022-12-11T12:32:10.531Z,95558.53
2022-12-11T12:34:55.463Z,95560.94
2022-12-11T12:37:40.333Z,95567.38
2022-12-11T12:40:25.137Z,95561.94
2022-12-11T12:43:10.057Z,95560.66
2022-12-11T12:45:55.058Z,95570.16
2022-12-11T12:48:39.878Z,95572.41
2022-12-11T12:51:24.833Z,95562.31
2022-12-11T12:54:12.469Z,95566.34
2022-12-11T12:56:57.745Z,95558.38
2022-12-11T12:59:42.518Z,95558.59
2022-12-11T13:02:27.437Z,95552.97
2022-12-11T13:05:12.723Z,95557.50
2022-12-11T13:07:57.900Z,95556.81
2022-12-11T13:10:42.860Z,95560.25
2022-12-11T13:13:27.678Z,95552.91
2022-12-11T13:16:12.684Z,95547.88
2022-12-11T13:18:57.428Z,95544.84
2022-12-11T13:21:42.298Z,95542.84
2022-12-11T13:24:27.308Z,95543.22
2022-12-11T13:27:11.994Z,95540.19
2022-12-11T13:29:56.923Z,95535.22
2022-12-11T13:32:41.832Z,95540.00
2022-12-11T13:35:26.763Z,95533.84
2022-12-11T13:38:11.546Z,95537.81
2022-12-11T13:40:56.498Z,95544.09
2022-12-11T13:43:41.221Z,95538.03
2022-12-11T13:46:26.053Z,95538.94
2022-12-11T13:49:10.925Z,95535.19
2022-12-11T13:51:55.914Z,95527.38
2022-12-11T13:54:40.769Z,95533.88
2022-12-11T13:57:25.659Z,95533.50
2022-12-11T14:00:15.825Z,95537.16
2022-12-11T14:03:02.556Z,95534.47
2022-12-11T14:05:47.655Z,95539.91
2022-12-11T14:08:33.664Z,95539.09
2022-12-11T14:11:18.458Z,95535.19
2022-12-11T14:14:03.420Z,95532.44
2022-12-11T14:16:48.316Z,95527.44
2022-12-11T14:19:33.149Z,95524.56
2022-12-11T14:22:18.160Z,95526.28
2022-12-11T14:25:03.064Z,95536.31
2022-12-11T14:27:48.031Z,95525.91
2022-12-11T14:30:32.992Z,95538.13
2022-12-11T14:33:17.901Z,95541.03
2022-12-11T14:36:02.727Z,95537.28
2022-12-11T14:38:47.619Z,95529.69
2022-12-11T14:41:32.519Z,95540.00
2022-12-11T14:44:17.461Z,95531.34
2022-12-11T14:47:02.618Z,95538.75
2022-12-11T14:49:47.518Z,95544.25
2022-12-11T14:52:32.509Z,95550.81
2022-12-11T14:55:17.468Z,95546.72
2022-12-11T14:58:02.478Z,95548.25
2022-12-11T15:00:47.283Z,95557.06
2022-12-11T15:03:32.301Z,95556.34
2022-12-11T15:06:17.289Z,95561.78
2022-12-11T15:09:02.312Z,95555.84
2022-12-11T15:11:47.242Z,95554.38
2022-12-11T15:14:32.124Z,95561.09
2022-12-11T15:17:17.119Z,95556.97
2022-12-11T15:20:01.932Z,95556.22
2022-12-11T15:22:46.798Z,95567.72
2022-12-11T15:25:31.681Z,95564.06
2022-12-11T15:28:16.511Z,95570.44
2022-12-11T15:31:01.293Z,95568.91
2022-12-11T15:33:46.168Z,95568.91
2022-12-11T15:36:31.237Z,95564.72
2022-12-11T15:39:16.096Z,95569.81
2022-12-11T15:42:01.055Z,95571.63
2022-12-11T15:44:45.874Z,95575.28
2022-12-11T15:47:30.927Z,95581.69
2022-12-11T15:50:15.717Z,95582.41
2022-12-11T15:53:00.621Z,95578.16
2022-12-11T15:55:45.497Z,95584.91
2022-12-11T15:58:30.510Z,95591.16
2022-12-11T16:01:15.501Z,95591.69
2022-12-11T16:04:04.645Z,95586.09
2022-12-11T16:06:49.776Z,95589.78
2022-12-11T16:09:34.710Z,95587.59
2022-12-11T16:12:19.638Z,95594.03
2022-12-11T16:15:04.569Z,95597.50
2022-12-11T16:17:49.456Z,95597.13
2022-12-11T16:20:34.535Z,95603.25
2022-12-11T16:23:19.440Z,95597.16
2022-12-11T16:26:04.305Z,95597.97
2022-12-11T16:28:49.225Z,95607.94
2022-12-11T16:31:34.343Z,95602.00
2022-12-11T16:34:19.260Z,95613.34
2022-12-11T16:37:04.075Z,95604.47
2022-12-11T16:39:49.125Z,95605.53
2022-12-11T16:42:33.862Z,95601.78
2022-12-11T16:45:18.860Z,95602.00
2022-12-11T16:48:03.683Z,95587.66
2022-12-11T16:50:48.600Z,95583.03
2022-12-11T16:53:33.393Z,95594.69
2022-12-11T16:56:18.315Z,95597.84
2022-12-11T16:59:03.124Z,95595.69
2022-12-11T17:01:48.058Z,95591.41
2022-12-11T17:04:32.974Z,95607.44
2022-12-11T17:07:17.883Z,95603.06
2022-12-11T17:10:02.697Z,95598.47
2022-12-11T17:12:47.724Z,95607.53
2022-12-11T17:15:32.683Z,95604.59
2022-12-11T17:18:18.145Z,95607.44
2022-12-11T17:21:02.974Z,95605.75
2022-12-11T17:23:47.955Z,95607.44
2022-12-11T17:26:32.970Z,95613.91
2022-12-11T17:29:17.833Z,95618.81
2022-12-11T17:32:02.594Z,95610.06
2022-12-11T17:34:47.675Z,95620.22
2022-12-11T17:37:32.661Z,95615.03
2022-12-11T17:40:17.546Z,95607.59
2022-12-11T17:43:02.458Z,95609.56
2022-12-11T17:45:47.378Z,95610.59
2022-12-11T17:48:32.337Z,95603.13
2022-12-11T17:51:17.149Z,95609.97
2022-12-11T17:54:02.047Z,95608.56
2022-12-11T17:56:47.003Z,95610.09
2022-12-11T17:59:31.853Z,95604.72
2022-12-11T18:02:16.785Z,95602.00
2022-12-11T18:05:01.531Z,95598.59
2022-12-11T18:07:46.427Z,95595.50
2022-12-11T18:10:31.238Z,95599.09
2022-12-11T18:13:16.177Z,95605.25
2022-12-11T18:16:01.112Z,95603.31
2022-12-11T18:18:45.973Z,95602.69
2022-12-11T18:21:30.785Z,95607.88
2022-12-11T18:24:15.586Z,95609.06
2022-12-11T18:27:00.351Z,95602.97
2022-12-11T18:29:45.227Z,95604.44
2022-12-11T18:32:30.132Z,95615.63
2022-12-11T18:35:15.103Z,95609.66
2022-12-11T18:37:59.964Z,95612.38
2022-12-11T18:40:44.742Z,95616.03
2022-12-11T18:43:29.844Z,95619.13
2022-12-11T18:46:14.641Z,95622.00
2022-12-11T18:48:59.671Z,95616.34
2022-12-11T18:51:44.555Z,95614.72
2022-12-11T18:54:29.465Z,95624.31
2022-12-11T18:57:14.235Z,95624.19
2022-12-11T18:59:59.380Z,95621.69
2022-12-11T19:02:44.883Z,95625.78
2022-12-11T19:05:29.706Z,95628.94
2022-12-11T19:08:14.628Z,95625.56
2022-12-11T19:10:59.406Z,95626.59
2022-12-11T19:13:44.390Z,95627.75
2022-12-11T19:16:29.371Z,95626.53
2022-12-11T19:19:14.253Z,95620.44
2022-12-11T19:21:59.128Z,95627.16
2022-12-11T19:24:44.124Z,95631.75
2022-12-11T19:27:28.922Z,95627.50
2022-12-11T19:30:13.925Z,95637.13
2022-12-11T19:32:58.894Z,95625.38
2022-12-11T19:35:43.773Z,95625.97
2022-12-11T19:38:28.758Z,95633.78
2022-12-11T19:41:13.623Z,95629.50
2022-12-11T19:43:58.661Z,95617.13
2022-12-11T19:46:43.567Z,95629.72
2022-12-11T19:49:28.466Z,95629.53
2022-12-11T19:52:13.406Z,95622.00
2022-12-11T19:54:58.322Z,95623.28
2022-12-11T19:57:43.393Z,95626.38
2022-12-11T20:00:28.314Z,95629.16
2022-12-11T20:03:13.197Z,95639.16
2022-12-11T20:05:57.918Z,95638.84
2022-12-11T20:08:45.739Z,95637.00
2022-12-11T20:11:31.473Z,95646.22
2022-12-11T20:14:16.506Z,95645.84
2022-12-11T20:17:11.907Z,95648.16
2022-12-11T20:19:57.336Z,95646.34
2022-12-11T20:22:42.372Z,95653.81
2022-12-11T20:25:27.346Z,95645.69
2022-12-11T20:28:12.231Z,95646.59
2022-12-11T20:30:57.006Z,95639.81
2022-12-11T20:33:41.964Z,95642.47
2022-12-11T20:36:26.788Z,95640.78
2022-12-11T20:39:11.672Z,95634.25
2022-12-11T20:41:56.626Z,95624.25
2022-12-11T20:44:45.648Z,95629.22
2022-12-11T20:47:33.958Z,95627.44
2022-12-11T20:50:19.021Z,95629.97
2022-12-11T20:53:03.926Z,95628.31
2022-12-11T20:55:48.812Z,95624.69
2022-12-11T20:58:33.692Z,95627.84
2022-12-11T21:01:18.589Z,95621.97
2022-12-11T21:04:03.415Z,95628.25
2022-12-11T21:06:48.393Z,95619.19
2022-12-11T21:09:33.480Z,95622.34
2022-12-11T21:12:18.448Z,95624.50
2022-12-11T21:15:03.259Z,95618.75
2022-12-11T21:17:48.121Z,95617.06
2022-12-11T21:20:33.069Z,95621.56
2022-12-11T21:23:18.012Z,95621.47
2022-12-11T21:26:02.981Z,95628.84
2022-12-11T21:28:47.794Z,95620.16
2022-12-11T21:31:32.717Z,95617.06
2022-12-11T21:34:23.558Z,95617.16
2022-12-11T21:37:10.304Z,95612.06
2022-12-11T21:39:55.217Z,95617.91
2022-12-11T21:42:40.121Z,95616.31
2022-12-11T21:45:59.702Z,95617.03
2022-12-11T21:48:29.993Z,95622.34
2022-12-11T21:51:14.971Z,95623.81
2022-12-11T21:53:59.866Z,95620.31
2022-12-11T21:56:44.736Z,95619.88
2022-12-11T21:59:29.539Z,95625.06
2022-12-11T22:02:14.430Z,95629.38
2022-12-11T22:04:59.343Z,95632.34
2022-12-11T22:07:44.240Z,95627.28
2022-12-11T22:10:29.076Z,95631.41
2022-12-11T22:13:13.876Z,95624.91
2022-12-11T22:15:58.882Z,95632.41
2022-12-11T22:18:43.639Z,95638.25
2022-12-11T22:21:28.497Z,95633.22
2022-12-11T22:24:13.320Z,95631.72
2022-12-11T22:26:58.311Z,95636.03
2022-12-11T22:29:43.172Z,95637.00
2022-12-11T22:32:27.952Z,95634.50
2022-12-11T22:35:13.252Z,95629.78
2022-12-11T22:37:58.305Z,95632.69
2022-12-11T22:40:43.233Z,95635.31
2022-12-11T22:43:28.060Z,95637.94
2022-12-11T22:46:12.885Z,95642.28
2022-12-11T22:48:57.671Z,95637.22
2022-12-11T22:51:42.726Z,95643.00
2022-12-11T22:54:27.537Z,95634.28
2022-12-11T22:57:12.602Z,95639.84
2022-12-11T22:59:57.439Z,95636.28
2022-12-11T23:02:42.426Z,95637.00
2022-12-11T23:05:27.800Z,95639.91
2022-12-11T23:08:12.826Z,95645.03
2022-12-11T23:10:58.077Z,95636.84
2022-12-11T23:13:42.929Z,95636.91
2022-12-11T23:16:27.842Z,95639.88
2022-12-11T23:19:13.131Z,95640.13
2022-12-11T23:21:58.036Z,95635.47
2022-12-11T23:24:43.122Z,95641.09
2022-12-11T23:27:28.038Z,95639.84
2022-12-11T23:30:13.005Z,95640.47
2022-12-11T23:32:58.005Z,95642.16
2022-12-11T23:35:42.866Z,95650.03
2022-12-11T23:38:27.649Z,95645.97
2022-12-11T23:41:12.583Z,95649.44
2022-12-11T23:43:57.420Z,95649.56
2022-12-11T23:46:42.308Z,95650.84
2022-12-11T23:49:27.179Z,95653.19
2022-12-11T23:52:11.936Z,95652.28
2022-12-11T23:54:56.816Z,95650.50
2022-12-11T23:57:41.642Z,95663.31
